createdAt,value
2024-03-15T00:00:54.522Z,6.18
2024-03-15T00:03:22.400Z,6.06
2024-03-15T00:05:48.972Z,6.02
2024-03-15T00:08:15.516Z,6.07
2024-03-15T00:10:42.075Z,6.06
2024-03-15T00:13:08.701Z,5.94
2024-03-15T00:15:35.300Z,6.02
2024-03-15T00:18:02.467Z,6.00
2024-03-15T00:20:29.095Z,5.81
2024-03-15T00:22:55.605Z,5.86
2024-03-15T00:25:22.661Z,6.02
2024-03-15T00:27:49.947Z,6.06
2024-03-15T00:30:16.815Z,6.17
2024-03-15T00:32:43.700Z,6.21
2024-03-15T00:35:10.502Z,6.21
2024-03-15T00:37:37.511Z,6.20
2024-03-15T00:40:04.970Z,6.28
2024-03-15T00:42:31.993Z,6.29
2024-03-15T00:44:59.071Z,6.23
2024-03-15T00:47:25.835Z,6.38
2024-03-15T00:49:52.431Z,6.31
2024-03-15T00:52:19.136Z,6.13
2024-03-15T00:54:47.320Z,6.08
2024-03-15T00:57:14.767Z,6.12
2024-03-15T00:59:41.369Z,6.07
2024-03-15T01:02:07.958Z,5.85
2024-03-15T01:04:36.092Z,5.84
2024-03-15T01:07:03.246Z,5.79
2024-03-15T01:09:31.052Z,5.78
2024-03-15T01:11:58.359Z,5.69
2024-03-15T01:14:24.966Z,5.56
2024-03-15T01:16:51.572Z,5.44
2024-03-15T01:19:18.205Z,5.37
2024-03-15T01:21:45.010Z,5.29
2024-03-15T01:24:14.075Z,5.26
2024-03-15T01:26:41.239Z,5.19
2024-03-15T01:29:09.142Z,5.20
2024-03-15T01:31:37.110Z,5.11
2024-03-15T01:34:03.862Z,5.08
2024-03-15T01:36:30.588Z,5.01
2024-03-15T01:38:57.222Z,4.94
2024-03-15T01:41:23.778Z,4.88
2024-03-15T01:43:50.289Z,4.79
2024-03-15T01:46:17.592Z,4.87
2024-03-15T01:48:45.876Z,4.94
2024-03-15T01:51:13.312Z,4.84
2024-03-15T01:53:40.879Z,4.86
2024-03-15T01:56:07.669Z,4.99
2024-03-15T01:58:34.268Z,4.95
2024-03-15T02:01:01.051Z,4.89
2024-03-15T02:03:31.171Z,4.79
2024-03-15T02:05:57.840Z,4.78
2024-03-15T02:08:25.531Z,4.77
2024-03-15T02:10:52.645Z,4.74
2024-03-15T02:13:19.254Z,4.78
2024-03-15T02:15:46.025Z,4.62
2024-03-15T02:18:12.824Z,4.57
2024-03-15T02:20:39.402Z,4.55
2024-03-15T02:23:06.016Z,4.51
2024-03-15T02:25:33.099Z,4.48
2024-03-15T02:27:59.787Z,4.46
2024-03-15T02:30:26.975Z,4.48
2024-03-15T02:32:53.836Z,4.43
2024-03-15T02:35:27.778Z,4.40
2024-03-15T02:37:59.156Z,4.32
2024-03-15T02:40:25.821Z,4.40
2024-03-15T02:42:53.238Z,4.35
2024-03-15T02:45:22.593Z,4.25
2024-03-15T02:47:49.785Z,4.12
2024-03-15T02:50:16.525Z,4.18
2024-03-15T02:52:44.939Z,4.21
2024-03-15T02:55:12.416Z,4.28
2024-03-15T02:57:39.489Z,4.25
2024-03-15T03:00:07.045Z,4.09
2024-03-15T03:02:33.658Z,4.09
2024-03-15T03:05:00.253Z,4.04
2024-03-15T03:07:26.990Z,3.88
2024-03-15T03:09:53.850Z,3.86
2024-03-15T03:12:20.584Z,3.74
2024-03-15T03:14:47.229Z,3.73
2024-03-15T03:17:15.855Z,3.68
2024-03-15T03:19:42.708Z,3.56
2024-03-15T03:22:09.476Z,3.49
2024-03-15T03:24:36.231Z,3.34
2024-03-15T03:27:02.854Z,3.37
2024-03-15T03:29:30.053Z,3.31
2024-03-15T03:31:56.885Z,3.25
2024-03-15T03:34:24.017Z,3.17
2024-03-15T03:36:50.919Z,3.13
2024-03-15T03:39:19.421Z,3.11
2024-03-15T03:41:46.033Z,3.14
2024-03-15T03:44:12.558Z,3.08
2024-03-15T03:46:39.090Z,3.16
2024-03-15T03:49:05.621Z,3.11
2024-03-15T03:51:32.769Z,3.11
2024-03-15T03:53:59.511Z,3.05
2024-03-15T03:56:26.268Z,3.15
2024-03-15T03:58:53.749Z,3.02
2024-03-15T04:01:20.423Z,2.96
2024-03-15T04:03:50.780Z,2.98
2024-03-15T04:06:17.659Z,2.89
2024-03-15T04:08:45.348Z,2.81
2024-03-15T04:11:12.208Z,2.76
2024-03-15T04:13:38.848Z,2.76
2024-03-15T04:16:05.758Z,2.83
2024-03-15T04:18:34.509Z,2.82
2024-03-15T04:21:01.542Z,2.81
2024-03-15T04:23:28.233Z,2.85
2024-03-15T04:25:56.416Z,2.80
2024-03-15T04:28:23.409Z,2.75
2024-03-15T04:30:50.326Z,2.75
2024-03-15T04:33:18.428Z,2.73
2024-03-15T04:35:45.198Z,2.78
2024-03-15T04:38:11.718Z,2.71
2024-03-15T04:40:38.255Z,2.71
2024-03-15T04:43:05.251Z,2.66
2024-03-15T04:45:31.907Z,2.62
2024-03-15T04:47:59.233Z,2.54
2024-03-15T04:50:26.166Z,2.46
2024-03-15T04:52:53.742Z,2.43
2024-03-15T04:55:23.526Z,2.41
2024-03-15T04:57:51.047Z,2.40
2024-03-15T05:00:21.548Z,2.33
2024-03-15T05:02:49.844Z,2.27
2024-03-15T05:05:17.632Z,2.34
2024-03-15T05:07:45.364Z,2.40
2024-03-15T05:10:18.984Z,2.33
2024-03-15T05:12:46.723Z,2.33
2024-03-15T05:15:14.314Z,2.32
2024-03-15T05:17:41.584Z,2.40
2024-03-15T05:20:14.697Z,2.39
2024-03-15T05:22:45.536Z,2.41
2024-03-15T05:25:15.549Z,2.45
2024-03-15T05:27:42.335Z,2.55
2024-03-15T05:30:09.943Z,2.57
2024-03-15T05:32:36.752Z,2.62
2024-03-15T05:35:03.456Z,2.62
2024-03-15T05:37:30.298Z,2.66
2024-03-15T05:39:57.143Z,2.66
2024-03-15T05:42:23.800Z,2.77
2024-03-15T05:44:50.535Z,2.84
2024-03-15T05:47:17.815Z,2.88
2024-03-15T05:49:44.575Z,2.96
2024-03-15T05:52:15.970Z,2.97
2024-03-15T05:54:43.119Z,2.98
2024-03-15T05:57:10.104Z,3.06
2024-03-15T05:59:36.998Z,3.21
2024-03-15T06:02:04.046Z,3.35
2024-03-15T06:04:33.951Z,3.50
2024-03-15T06:07:01.337Z,3.62
2024-03-15T06:09:30.799Z,3.75
2024-03-15T06:11:57.573Z,3.93
2024-03-15T06:14:26.037Z,4.04
2024-03-15T06:16:52.571Z,4.21
2024-03-15T06:19:20.561Z,4.31
2024-03-15T06:21:49.622Z,4.42
2024-03-15T06:24:21.053Z,4.62
2024-03-15T06:26:57.058Z,4.74
2024-03-15T06:29:32.269Z,4.91
2024-03-15T06:31:59.384Z,5.12
2024-03-15T06:34:26.146Z,5.21
2024-03-15T06:36:55.670Z,5.51
2024-03-15T06:39:37.716Z,5.67
2024-03-15T06:42:23.584Z,5.78
2024-03-15T06:45:04.689Z,5.95
2024-03-15T06:47:34.488Z,6.11
2024-03-15T06:50:29.990Z,6.29
2024-03-15T06:52:56.481Z,6.55
2024-03-15T06:55:23.080Z,6.65
2024-03-15T06:57:50.103Z,6.79
2024-03-15T07:00:17.348Z,7.11
2024-03-15T07:02:44.943Z,7.12
2024-03-15T07:05:12.868Z,7.17
2024-03-15T07:07:39.803Z,7.32
2024-03-15T07:10:07.057Z,7.54
2024-03-15T07:12:34.108Z,7.63
2024-03-15T07:15:00.892Z,7.65
2024-03-15T07:17:27.798Z,7.82
2024-03-15T07:19:57.047Z,7.96
2024-03-15T07:22:27.142Z,8.13
2024-03-15T07:24:54.032Z,8.11
2024-03-15T07:27:22.141Z,8.17
2024-03-15T07:29:48.701Z,8.39
2024-03-15T07:32:15.195Z,8.43
2024-03-15T07:34:41.741Z,8.55
2024-03-15T07:37:08.350Z,8.66
2024-03-15T07:39:34.964Z,8.65
2024-03-15T07:42:01.605Z,8.83
2024-03-15T07:44:29.437Z,8.91
2024-03-15T07:46:59.228Z,9.04
2024-03-15T07:49:26.293Z,9.05
2024-03-15T07:51:53.094Z,9.09
2024-03-15T07:54:20.112Z,9.23
2024-03-15T07:56:46.721Z,9.45
2024-03-15T07:59:14.256Z,9.48
2024-03-15T08:01:42.486Z,9.40
2024-03-15T08:04:10.439Z,9.62
2024-03-15T08:06:38.444Z,9.58
2024-03-15T08:09:06.302Z,9.64
2024-03-15T08:11:36.986Z,9.72
2024-03-15T08:14:04.185Z,9.83
2024-03-15T08:16:37.421Z,10.01
2024-03-15T08:19:05.713Z,10.07
2024-03-15T08:21:32.639Z,10.11
2024-03-15T08:24:05.557Z,10.20
2024-03-15T08:26:33.718Z,10.28
2024-03-15T08:29:04.016Z,10.38
2024-03-15T08:31:33.500Z,10.40
2024-03-15T08:34:05.162Z,10.46
2024-03-15T08:36:33.780Z,10.40
2024-03-15T08:39:00.324Z,10.48
2024-03-15T08:41:27.349Z,10.62
2024-03-15T08:43:53.959Z,10.71
2024-03-15T08:46:20.637Z,10.78
2024-03-15T08:48:47.427Z,10.96
2024-03-15T08:51:15.083Z,11.18
2024-03-15T08:53:43.027Z,11.27
2024-03-15T08:56:09.817Z,11.52
2024-03-15T08:58:36.325Z,11.45
2024-03-15T09:01:06.073Z,11.20
2024-03-15T09:03:39.308Z,11.28
2024-03-15T09:06:10.204Z,11.55
2024-03-15T09:08:36.920Z,11.78
2024-03-15T09:11:04.589Z,11.97
2024-03-15T09:13:34.110Z,11.86
2024-03-15T09:16:03.584Z,12.07
2024-03-15T09:18:30.471Z,12.00
2024-03-15T09:20:58.023Z,12.12
2024-03-15T09:23:25.359Z,12.15
2024-03-15T09:25:51.961Z,12.34
2024-03-15T09:28:19.750Z,12.30
2024-03-15T09:31:04.039Z,12.31
2024-03-15T09:33:38.017Z,12.49
2024-03-15T09:36:06.549Z,12.75
2024-03-15T09:38:36.229Z,12.94
2024-03-15T09:41:02.856Z,13.35
2024-03-15T09:43:31.559Z,13.42
2024-03-15T09:45:59.017Z,13.47
2024-03-15T09:48:26.842Z,13.55
2024-03-15T09:50:54.175Z,13.74
2024-03-15T09:53:20.980Z,13.78
2024-03-15T09:55:54.025Z,13.83
2024-03-15T09:58:22.202Z,13.75
2024-03-15T10:00:49.308Z,13.61
2024-03-15T10:03:16.960Z,13.48
2024-03-15T10:05:44.452Z,13.74
2024-03-15T10:08:12.181Z,14.01
2024-03-15T10:10:40.658Z,13.92
2024-03-15T10:13:07.301Z,14.08
2024-03-15T10:15:34.093Z,13.83
2024-03-15T10:18:00.773Z,13.98
2024-03-15T10:20:27.399Z,13.94
2024-03-15T10:22:56.022Z,14.22
2024-03-15T10:25:25.915Z,14.45
2024-03-15T10:27:56.898Z,14.88
2024-03-15T10:30:29.844Z,14.78
2024-03-15T10:32:59.882Z,14.61
2024-03-15T10:35:29.328Z,14.56
2024-03-15T10:37:56.806Z,14.52
2024-03-15T10:40:26.062Z,14.52
2024-03-15T10:42:54.290Z,14.39
2024-03-15T10:45:27.216Z,14.47
2024-03-15T10:47:55.180Z,14.45
2024-03-15T10:50:28.913Z,14.61
2024-03-15T10:52:57.890Z,14.61
2024-03-15T10:55:31.166Z,14.98
2024-03-15T10:58:00.473Z,15.27
2024-03-15T11:00:30.791Z,15.26
2024-03-15T11:03:14.790Z,15.36
2024-03-15T11:05:41.423Z,15.53
2024-03-15T11:08:16.163Z,15.45
2024-03-15T11:10:57.119Z,15.23
2024-03-15T11:13:27.388Z,15.19
2024-03-15T11:15:54.391Z,15.44
2024-03-15T11:18:21.466Z,15.33
2024-03-15T11:20:48.228Z,15.58
2024-03-15T11:23:26.219Z,15.60
2024-03-15T11:26:00.901Z,15.74
2024-03-15T11:28:32.771Z,15.46
2024-03-15T11:31:00.027Z,15.38
2024-03-15T11:33:28.025Z,15.38
2024-03-15T11:35:56.254Z,15.24
2024-03-15T11:38:23.343Z,15.15
2024-03-15T11:40:55.080Z,15.18
2024-03-15T11:43:21.722Z,15.73
2024-03-15T11:45:48.982Z,15.88
2024-03-15T11:48:17.171Z,16.03
2024-03-15T11:50:45.986Z,16.22
2024-03-15T11:53:13.942Z,16.27
2024-03-15T11:55:44.181Z,16.21
2024-03-15T11:58:15.301Z,16.10
2024-03-15T12:00:42.881Z,16.07
2024-03-15T12:03:12.333Z,16.24
2024-03-15T12:05:43.062Z,16.53
2024-03-15T12:08:14.351Z,16.24
2024-03-15T12:10:41.486Z,16.46
2024-03-15T12:13:23.421Z,16.59
2024-03-15T12:15:52.323Z,16.68
2024-03-15T12:18:24.832Z,16.55
2024-03-15T12:20:52.960Z,16.05
2024-03-15T12:23:21.489Z,16.07
2024-03-15T12:25:49.555Z,16.40
2024-03-15T12:28:20.908Z,16.45
2024-03-15T12:30:50.129Z,16.36
2024-03-15T12:33:17.046Z,16.65
2024-03-15T12:35:45.083Z,16.78
2024-03-15T12:38:19.640Z,16.80
2024-03-15T12:40:46.656Z,17.09
2024-03-15T12:43:13.547Z,17.01
2024-03-15T12:45:42.653Z,17.24
2024-03-15T12:48:13.247Z,17.26
2024-03-15T12:50:41.491Z,16.83
2024-03-15T12:53:13.570Z,16.61
2024-03-15T12:55:41.506Z,16.70
2024-03-15T12:58:09.159Z,16.73
2024-03-15T13:00:36.164Z,16.72
2024-03-15T13:03:05.437Z,16.78
2024-03-15T13:05:32.048Z,16.76
2024-03-15T13:07:58.578Z,16.96
2024-03-15T13:10:25.185Z,16.90
2024-03-15T13:12:53.791Z,16.70
2024-03-15T13:15:20.930Z,16.44
2024-03-15T13:17:55.817Z,16.66
2024-03-15T13:20:23.476Z,16.71
2024-03-15T13:22:54.577Z,16.48
2024-03-15T13:25:34.529Z,16.54
2024-03-15T13:28:06.021Z,16.57
2024-03-15T13:30:33.665Z,16.35
2024-03-15T13:33:02.578Z,16.62
2024-03-15T13:35:30.351Z,16.57
2024-03-15T13:37:57.059Z,16.39
2024-03-15T13:40:25.896Z,16.10
2024-03-15T13:42:54.003Z,16.07
2024-03-15T13:45:23.459Z,16.41
2024-03-15T13:48:30.731Z,16.24
2024-03-15T13:50:58.390Z,16.22
2024-03-15T13:53:24.867Z,16.13
2024-03-15T13:55:51.528Z,15.83
2024-03-15T13:58:18.792Z,15.91
2024-03-15T14:00:45.586Z,15.97
2024-03-15T14:03:17.387Z,16.00
2024-03-15T14:05:43.936Z,16.15
2024-03-15T14:08:21.212Z,16.06
2024-03-15T14:10:48.251Z,16.10
2024-03-15T14:13:17.152Z,15.99
2024-03-15T14:15:44.156Z,16.04
2024-03-15T14:18:13.273Z,16.07
2024-03-15T14:20:42.731Z,16.22
2024-03-15T14:23:09.512Z,15.84
2024-03-15T14:25:36.075Z,16.11
2024-03-15T14:28:11.334Z,16.22
2024-03-15T14:30:38.822Z,16.26
2024-03-15T14:33:09.889Z,15.94
2024-03-15T14:35:37.458Z,16.06
2024-03-15T14:38:09.545Z,15.91
2024-03-15T14:40:38.641Z,15.76
2024-03-15T14:43:08.547Z,15.78
2024-03-15T14:45:36.992Z,15.56
2024-03-15T14:48:12.442Z,15.56
2024-03-15T14:50:41.196Z,15.57
2024-03-15T14:53:08.107Z,15.40
2024-03-15T14:55:35.348Z,15.34
2024-03-15T14:58:04.451Z,15.27
2024-03-15T15:00:32.279Z,15.25
2024-03-15T15:02:59.410Z,15.17
2024-03-15T15:05:26.124Z,15.21
2024-03-15T15:07:52.962Z,15.45
2024-03-15T15:10:19.765Z,15.59
2024-03-15T15:12:46.434Z,15.30
2024-03-15T15:15:17.520Z,15.38
2024-03-15T15:17:46.852Z,15.24
2024-03-15T15:20:16.703Z,15.13
2024-03-15T15:22:44.029Z,15.24
2024-03-15T15:25:12.007Z,14.85
2024-03-15T15:27:44.126Z,14.77
2024-03-15T15:30:18.124Z,14.67
2024-03-15T15:32:45.310Z,14.78
2024-03-15T15:35:14.434Z,14.56
2024-03-15T15:37:41.826Z,14.53
2024-03-15T15:40:18.497Z,14.29
2024-03-15T15:42:50.078Z,14.21
2024-03-15T15:45:18.643Z,14.15
2024-03-15T15:47:46.183Z,14.08
2024-03-15T15:50:19.642Z,13.98
2024-03-15T15:52:47.791Z,13.94
2024-03-15T15:55:15.732Z,13.86
2024-03-15T15:57:46.708Z,13.66
2024-03-15T16:00:20.967Z,13.72
2024-03-15T16:02:48.799Z,13.68
2024-03-15T16:05:15.803Z,13.48
2024-03-15T16:07:45.552Z,13.42
2024-03-15T16:10:17.076Z,13.44
2024-03-15T16:12:45.076Z,13.41
2024-03-15T16:15:12.072Z,13.44
2024-03-15T16:17:38.821Z,13.34
2024-03-15T16:20:05.824Z,13.26
2024-03-15T16:22:34.522Z,13.29
2024-03-15T16:25:02.364Z,13.19
2024-03-15T16:27:29.155Z,13.05
2024-03-15T16:29:56.776Z,12.97
2024-03-15T16:32:24.007Z,12.84
2024-03-15T16:34:51.525Z,12.79
2024-03-15T16:37:18.491Z,12.73
2024-03-15T16:39:46.004Z,12.62
2024-03-15T16:42:14.023Z,12.57
2024-03-15T16:44:41.217Z,12.50
2024-03-15T16:47:07.858Z,12.42
2024-03-15T16:49:34.538Z,12.32
2024-03-15T16:52:01.288Z,12.05
2024-03-15T16:54:28.360Z,11.90
2024-03-15T16:56:56.262Z,11.87
2024-03-15T16:59:22.786Z,11.91
2024-03-15T17:01:49.404Z,11.86
2024-03-15T17:04:16.024Z,11.78
2024-03-15T17:06:42.713Z,11.72
2024-03-15T17:09:14.430Z,11.62
2024-03-15T17:11:41.784Z,11.47
2024-03-15T17:14:08.460Z,11.36
2024-03-15T17:16:35.071Z,11.43
2024-03-15T17:19:03.681Z,11.45
2024-03-15T17:21:30.495Z,11.39
2024-03-15T17:23:57.278Z,11.40
2024-03-15T17:26:23.869Z,11.36
2024-03-15T17:28:50.406Z,11.24
2024-03-15T17:31:16.886Z,11.11
2024-03-15T17:33:43.500Z,10.97
2024-03-15T17:36:10.361Z,11.00
2024-03-15T17:38:36.946Z,11.03
2024-03-15T17:41:04.058Z,10.84
2024-03-15T17:43:30.626Z,10.76
2024-03-15T17:45:57.241Z,10.67
2024-03-15T17:48:23.903Z,10.62
2024-03-15T17:50:50.493Z,10.57
2024-03-15T17:53:17.120Z,10.49
2024-03-15T17:55:43.872Z,10.46
2024-03-15T17:58:10.883Z,10.37
2024-03-15T18:00:37.749Z,10.63
2024-03-15T18:03:05.314Z,10.66
2024-03-15T18:05:33.234Z,10.73
2024-03-15T18:08:00.280Z,10.76
2024-03-15T18:10:27.052Z,10.74
2024-03-15T18:12:54.521Z,10.55
2024-03-15T18:15:22.571Z,10.50
2024-03-15T18:17:49.626Z,10.42
2024-03-15T18:20:17.191Z,10.38
2024-03-15T18:22:43.663Z,10.29
2024-03-15T18:25:12.243Z,10.16
2024-03-15T18:27:39.133Z,10.21
2024-03-15T18:30:06.682Z,10.06
2024-03-15T18:32:33.444Z,9.98
2024-03-15T18:35:00.420Z,9.97
2024-03-15T18:37:27.680Z,9.72
2024-03-15T18:39:56.449Z,9.59
2024-03-15T18:42:24.378Z,9.49
2024-03-15T18:44:51.210Z,9.50
2024-03-15T18:47:17.813Z,9.39
2024-03-15T18:49:44.341Z,9.35
2024-03-15T18:52:11.957Z,9.32
2024-03-15T18:54:38.741Z,9.29
2024-03-15T18:57:07.270Z,9.36
2024-03-15T18:59:37.895Z,9.35
2024-03-15T19:02:06.379Z,9.28
2024-03-15T19:04:33.562Z,9.00
2024-03-15T19:07:00.678Z,8.88
2024-03-15T19:09:27.366Z,8.90
2024-03-15T19:11:54.123Z,8.85
2024-03-15T19:14:21.979Z,8.75
2024-03-15T19:16:48.538Z,8.78
2024-03-15T19:19:15.291Z,8.80
2024-03-15T19:21:42.138Z,8.74
2024-03-15T19:24:09.117Z,8.71
2024-03-15T19:26:36.159Z,8.69
2024-03-15T19:29:04.118Z,8.63
2024-03-15T19:31:30.888Z,8.65
2024-03-15T19:33:57.545Z,8.68
2024-03-15T19:36:24.235Z,8.61
2024-03-15T19:38:50.872Z,8.56
2024-03-15T19:41:17.922Z,8.52
2024-03-15T19:43:45.476Z,8.34
2024-03-15T19:46:12.265Z,8.28
2024-03-15T19:48:39.173Z,8.23
2024-03-15T19:51:05.811Z,8.25
2024-03-15T19:53:33.061Z,8.24
2024-03-15T19:55:59.935Z,8.32
2024-03-15T19:58:29.917Z,8.30
2024-03-15T20:00:58.848Z,8.28
2024-03-15T20:03:25.712Z,8.25
2024-03-15T20:05:56.072Z,8.15
2024-03-15T20:08:23.949Z,8.08
2024-03-15T20:10:51.050Z,8.10
2024-03-15T20:13:17.945Z,8.11
2024-03-15T20:15:45.613Z,8.16
2024-03-15T20:18:12.483Z,8.17
2024-03-15T20:20:40.623Z,8.15
2024-03-15T20:23:08.074Z,8.18
2024-03-15T20:25:34.814Z,8.17
2024-03-15T20:28:04.342Z,8.18
2024-03-15T20:30:31.633Z,8.27
2024-03-15T20:32:59.599Z,8.25
2024-03-15T20:35:29.306Z,8.31
2024-03-15T20:37:57.639Z,8.30
2024-03-15T20:40:27.884Z,8.42
2024-03-15T20:42:55.961Z,8.32
2024-03-15T20:45:23.804Z,8.26
2024-03-15T20:47:51.116Z,8.13
2024-03-15T20:50:18.387Z,8.08
2024-03-15T20:52:45.616Z,8.00
2024-03-15T20:55:12.456Z,7.91
2024-03-15T20:57:39.205Z,7.81
2024-03-15T21:00:08.784Z,7.82
2024-03-15T21:02:35.440Z,7.79
2024-03-15T21:05:01.923Z,7.91
2024-03-15T21:07:28.660Z,7.87
2024-03-15T21:09:55.300Z,7.90
2024-03-15T21:12:27.327Z,7.86
2024-03-15T21:14:53.960Z,7.91
2024-03-15T21:17:20.533Z,8.00
2024-03-15T21:19:49.957Z,8.05
2024-03-15T21:22:16.635Z,7.94
2024-03-15T21:24:43.798Z,7.89
2024-03-15T21:27:10.348Z,7.91
2024-03-15T21:29:36.870Z,7.89
2024-03-15T21:32:05.076Z,7.81
2024-03-15T21:34:31.690Z,7.90
2024-03-15T21:36:58.563Z,7.90
2024-03-15T21:39:25.797Z,7.91
2024-03-15T21:41:52.483Z,7.90
2024-03-15T21:44:19.143Z,7.87
2024-03-15T21:46:47.637Z,7.86
2024-03-15T21:49:14.955Z,7.79
2024-03-15T21:51:41.623Z,7.76
2024-03-15T21:54:08.271Z,7.67
2024-03-15T21:56:34.864Z,7.60
2024-03-15T21:59:06.212Z,7.64
2024-03-15T22:01:36.401Z,7.74
2024-03-15T22:04:07.428Z,7.69
2024-03-15T22:06:39.269Z,7.69
2024-03-15T22:09:06.154Z,7.76
2024-03-15T22:11:32.679Z,7.77
2024-03-15T22:14:00.941Z,7.70
2024-03-15T22:16:29.544Z,7.76
2024-03-15T22:18:57.281Z,7.83
2024-03-15T22:21:24.382Z,7.95
2024-03-15T22:23:50.994Z,7.91
2024-03-15T22:26:18.157Z,7.86
2024-03-15T22:28:44.777Z,7.65
2024-03-15T22:31:12.074Z,7.61
2024-03-15T22:33:39.848Z,7.58
2024-03-15T22:36:10.263Z,7.52
2024-03-15T22:38:37.246Z,7.63
2024-03-15T22:41:03.944Z,7.71
2024-03-15T22:43:30.998Z,7.76
2024-03-15T22:45:58.736Z,7.78
2024-03-15T22:48:25.431Z,7.68
2024-03-15T22:50:52.125Z,7.64
2024-03-15T22:53:18.757Z,7.68
2024-03-15T22:55:48.151Z,7.56
2024-03-15T22:58:14.846Z,7.54
2024-03-15T23:00:44.523Z,7.51
2024-03-15T23:03:11.254Z,7.47
2024-03-15T23:05:37.995Z,7.51
2024-03-15T23:08:04.781Z,7.41
2024-03-15T23:10:31.330Z,7.39
2024-03-15T23:13:00.531Z,7.45
2024-03-15T23:15:27.805Z,7.36
2024-03-15T23:17:55.969Z,7.44
2024-03-15T23:20:22.705Z,7.32
2024-03-15T23:22:50.286Z,7.30
2024-03-15T23:25:18.962Z,7.27
2024-03-15T23:27:46.881Z,7.20
2024-03-15T23:30:13.663Z,7.15
2024-03-15T23:32:40.521Z,7.21
2024-03-15T23:35:09.246Z,7.12
2024-03-15T23:37:36.004Z,7.02
2024-03-15T23:40:02.817Z,6.98
2024-03-15T23:42:29.711Z,6.97
2024-03-15T23:44:56.244Z,6.96
2024-03-15T23:47:23.951Z,6.97
2024-03-15T23:49:50.530Z,7.00
2024-03-15T23:52:17.862Z,6.93
2024-03-15T23:54:45.165Z,6.99
2024-03-15T23:57:11.884Z,6.95
2024-03-15T23:59:38.433Z,6.97
